createdAt,value
2022-08-22T00:00:13.598Z,98260.66
2022-08-22T00:02:44.407Z,98268.78
2022-08-22T00:02:55.614Z,98257.00
2022-08-22T00:02:57.678Z,98266.59
2022-08-22T00:02:58.381Z,98235.44
2022-08-22T00:03:00.668Z,98259.13
2022-08-22T00:03:04.186Z,98312.34
2022-08-22T00:03:10.387Z,98257.41
2022-08-22T00:03:17.423Z,98269.25
2022-08-22T00:05:59.931Z,98266.47
2022-08-22T00:08:37.524Z,98248.84
2022-08-22T00:11:14.154Z,98271.06
2022-08-22T00:13:47.827Z,98269.91
2022-08-22T00:16:29.202Z,98285.16
2022-08-22T00:19:09.945Z,98273.84
2022-08-22T00:21:48.878Z,98270.69
2022-08-22T00:24:26.535Z,98269.53
2022-08-22T00:27:00.613Z,98262.44
2022-08-22T00:29:39.899Z,98263.63
2022-08-22T00:32:17.161Z,98280.44
2022-08-22T00:34:58.453Z,98270.25
2022-08-22T00:37:38.223Z,98262.84
2022-08-22T00:40:29.417Z,98274.50
2022-08-22T00:43:32.721Z,98262.03
2022-08-22T00:46:15.490Z,98279.19
2022-08-22T00:49:25.427Z,98262.38
2022-08-22T00:52:29.140Z,98270.19
2022-08-22T00:55:33.898Z,98289.41
2022-08-22T00:58:46.627Z,98285.56
2022-08-22T01:01:21.098Z,98301.16
2022-08-22T01:04:07.567Z,98284.78
2022-08-22T01:06:46.890Z,98281.78
2022-08-22T01:09:41.406Z,98287.72
2022-08-22T01:12:40.197Z,98258.84
2022-08-22T01:15:14.541Z,98263.56
2022-08-22T01:18:08.293Z,98242.88
2022-08-22T01:21:20.683Z,98265.13
2022-08-22T01:25:00.239Z,98270.56
2022-08-22T01:27:58.980Z,98285.72
2022-08-22T01:31:00.977Z,98303.31
2022-08-22T01:34:14.161Z,98290.34
2022-08-22T01:37:19.043Z,98299.28
2022-08-22T01:40:25.313Z,98304.78
2022-08-22T01:43:07.438Z,98316.84
2022-08-22T01:46:11.041Z,98305.84
2022-08-22T01:48:47.750Z,98321.00
2022-08-22T01:51:24.762Z,98311.69
2022-08-22T01:54:02.406Z,98305.41
2022-08-22T01:56:37.313Z,98278.00
2022-08-22T01:59:10.905Z,98280.78
2022-08-22T02:01:59.450Z,98266.00
2022-08-22T02:04:43.711Z,98275.75
2022-08-22T02:07:31.660Z,98268.41
2022-08-22T02:10:09.285Z,98262.66
2022-08-22T02:12:47.417Z,98272.47
2022-08-22T02:15:24.185Z,98249.84
2022-08-22T02:18:03.755Z,98255.75
2022-08-22T02:20:40.717Z,98258.50
2022-08-22T02:23:20.932Z,98247.56
2022-08-22T02:25:56.251Z,98224.84
2022-08-22T02:28:38.485Z,98220.53
2022-08-22T02:31:19.891Z,98234.16
2022-08-22T02:33:54.961Z,98209.09
2022-08-22T02:36:30.006Z,98211.44
2022-08-22T02:39:09.747Z,98223.09
2022-08-22T02:41:49.486Z,98211.75
2022-08-22T02:44:28.291Z,98204.38
2022-08-22T02:47:08.403Z,98214.53
2022-08-22T02:49:48.546Z,98217.28
2022-08-22T02:52:26.668Z,98223.94
2022-08-22T02:55:03.823Z,98240.44
2022-08-22T02:57:39.339Z,98233.44
2022-08-22T03:00:32.025Z,98239.72
2022-08-22T03:03:05.940Z,98244.44
2022-08-22T03:05:48.369Z,98254.63
2022-08-22T03:08:23.923Z,98267.16
2022-08-22T03:11:07.895Z,98244.16
2022-08-22T03:13:48.275Z,98246.47
2022-08-22T03:16:27.227Z,98252.38
2022-08-22T03:19:03.101Z,98268.03
2022-08-22T03:21:36.576Z,98280.53
2022-08-22T03:24:12.422Z,98271.91
2022-08-22T03:26:47.626Z,98273.91
2022-08-22T03:29:21.794Z,98283.25
2022-08-22T03:32:12.801Z,98293.84
2022-08-22T03:34:57.109Z,98291.47
2022-08-22T03:37:34.893Z,98279.72
2022-08-22T03:40:07.839Z,98272.72
2022-08-22T03:43:09.081Z,98278.16
2022-08-22T03:46:04.476Z,98291.81
2022-08-22T03:49:17.773Z,98280.06
2022-08-22T03:52:02.709Z,98282.41
2022-08-22T03:55:00.965Z,98292.16
2022-08-22T03:58:13.633Z,98280.41
2022-08-22T04:01:22.045Z,98281.22
2022-08-22T04:04:28.754Z,98292.53
2022-08-22T04:07:31.746Z,98283.97
2022-08-22T04:10:32.584Z,98282.78
2022-08-22T04:13:33.237Z,98303.09
2022-08-22T04:16:31.096Z,98306.25
2022-08-22T04:19:33.718Z,98298.81
2022-08-22T04:22:38.417Z,98309.31
2022-08-22T04:25:11.336Z,98292.09
2022-08-22T04:27:45.353Z,98310.81
2022-08-22T04:30:26.121Z,98310.00
2022-08-22T04:33:03.163Z,98310.00
2022-08-22T04:35:35.488Z,98309.22
2022-08-22T04:38:14.653Z,98303.72
2022-08-22T04:41:04.544Z,98313.88
2022-08-22T04:43:39.070Z,98322.44
2022-08-22T04:46:16.974Z,98322.88
2022-08-22T04:48:52.778Z,98334.09
2022-08-22T04:51:32.338Z,98322.38
2022-08-22T04:54:43.606Z,98326.25
2022-08-22T04:57:35.423Z,98312.19
2022-08-22T05:00:06.982Z,98315.31
2022-08-22T05:02:39.733Z,98321.53
2022-08-22T05:05:14.734Z,98325.81
2022-08-22T05:07:48.405Z,98334.84
2022-08-22T05:10:20.849Z,98337.13
2022-08-22T05:12:55.435Z,98341.03
2022-08-22T05:15:31.865Z,98346.13
2022-08-22T05:18:07.499Z,98362.53
2022-08-22T05:20:37.952Z,98355.81
2022-08-22T05:23:17.570Z,98363.59
2022-08-22T05:25:50.114Z,98323.63
2022-08-22T05:28:24.117Z,98318.25
2022-08-22T05:31:00.096Z,98322.22
2022-08-22T05:33:40.859Z,98324.03
2022-08-22T05:36:11.824Z,98329.41
2022-08-22T05:38:49.135Z,98320.41
2022-08-22T05:41:26.627Z,98314.09
2022-08-22T05:43:56.243Z,98307.44
2022-08-22T05:46:26.993Z,98313.22
2022-08-22T05:49:00.312Z,98301.31
2022-08-22T05:51:33.195Z,98319.56
2022-08-22T05:54:15.315Z,98306.50
2022-08-22T05:56:48.445Z,98321.16
2022-08-22T05:59:25.738Z,98326.16
2022-08-22T06:02:03.494Z,98316.44
2022-08-22T06:04:38.840Z,98326.53
2022-08-22T06:07:13.178Z,98326.50
2022-08-22T06:10:06.971Z,98320.94
2022-08-22T06:12:43.434Z,98328.31
2022-08-22T06:15:20.928Z,98321.66
2022-08-22T06:17:52.344Z,98324.69
2022-08-22T06:20:28.679Z,98336.09
2022-08-22T06:23:00.835Z,98344.19
2022-08-22T06:25:34.287Z,98316.00
2022-08-22T06:28:07.290Z,98333.97
2022-08-22T06:30:38.124Z,98335.94
2022-08-22T06:33:12.584Z,98337.16
2022-08-22T06:36:03.051Z,98352.00
2022-08-22T06:38:34.033Z,98367.22
2022-08-22T06:41:07.283Z,98351.84
2022-08-22T06:43:41.278Z,98338.94
2022-08-22T06:46:11.448Z,98339.22
2022-08-22T06:48:42.614Z,98334.06
2022-08-22T06:51:14.246Z,98339.56
2022-08-22T06:53:48.473Z,98338.25
2022-08-22T06:56:23.077Z,98348.31
2022-08-22T06:58:53.963Z,98365.81
2022-08-22T07:01:25.065Z,98360.97
2022-08-22T07:04:00.441Z,98356.66
2022-08-22T07:06:35.466Z,98352.63
2022-08-22T07:09:06.188Z,98362.31
2022-08-22T07:11:40.763Z,98355.50
2022-08-22T07:14:12.451Z,98381.97
2022-08-22T07:16:44.744Z,98378.00
2022-08-22T07:19:28.881Z,98371.59
2022-08-22T07:21:59.939Z,98371.53
2022-08-22T07:24:33.023Z,98382.00
2022-08-22T07:27:20.954Z,98372.22
2022-08-22T07:29:58.069Z,98373.72
2022-08-22T07:32:33.337Z,98368.03
2022-08-22T07:35:11.181Z,98375.19
2022-08-22T07:37:55.148Z,98390.13
2022-08-22T07:40:33.972Z,98379.28
2022-08-22T07:43:09.536Z,98380.91
2022-08-22T07:45:41.978Z,98370.41
2022-08-22T07:48:25.570Z,98369.06
2022-08-22T07:51:05.861Z,98377.47
2022-08-22T07:53:43.484Z,98370.72
2022-08-22T07:56:17.127Z,98365.97
2022-08-22T07:58:49.102Z,98368.94
2022-08-22T08:01:21.276Z,98379.13
2022-08-22T08:03:55.799Z,98373.59
2022-08-22T08:06:26.493Z,98370.66
2022-08-22T08:08:58.352Z,98369.88
2022-08-22T08:11:31.832Z,98383.53
2022-08-22T08:14:04.389Z,98375.31
2022-08-22T08:16:43.076Z,98375.56
2022-08-22T08:19:13.936Z,98358.53
2022-08-22T08:21:49.575Z,98372.31
2022-08-22T08:24:26.195Z,98366.78
2022-08-22T08:27:17.208Z,98356.50
2022-08-22T08:29:55.599Z,98362.97
2022-08-22T08:32:29.030Z,98378.44
2022-08-22T08:35:09.262Z,98367.84
2022-08-22T08:37:50.003Z,98370.69
2022-08-22T08:40:37.326Z,98377.91
2022-08-22T08:43:30.068Z,98391.41
2022-08-22T08:46:55.290Z,98387.59
2022-08-22T08:50:01.189Z,98372.66
2022-08-22T08:52:42.808Z,98383.16
2022-08-22T08:55:30.639Z,98363.16
2022-08-22T08:58:13.486Z,98372.88
2022-08-22T09:01:07.295Z,98374.34
2022-08-22T09:04:15.151Z,98373.50
2022-08-22T09:07:15.879Z,98390.63
2022-08-22T09:10:04.662Z,98376.88
2022-08-22T09:13:00.633Z,98378.97
2022-08-22T09:16:02.253Z,98380.00
2022-08-22T09:18:49.882Z,98370.41
2022-08-22T09:21:43.215Z,98388.69
2022-08-22T09:24:54.416Z,98378.84
2022-08-22T09:27:33.903Z,98384.84
2022-08-22T09:30:11.921Z,98373.06
2022-08-22T09:32:48.850Z,98375.91
2022-08-22T09:35:27.189Z,98376.97
2022-08-22T09:38:29.430Z,98376.50
2022-08-22T09:41:11.677Z,98384.13
2022-08-22T09:43:50.162Z,98378.66
2022-08-22T09:46:32.067Z,98368.63
2022-08-22T09:49:10.882Z,98369.47
2022-08-22T09:51:52.789Z,98360.09
2022-08-22T09:54:31.154Z,98359.66
2022-08-22T09:57:09.246Z,98353.72
2022-08-22T09:59:57.977Z,98374.94
2022-08-22T10:02:43.279Z,98375.06
2022-08-22T10:05:40.658Z,98356.22
2022-08-22T10:08:20.121Z,98348.22
2022-08-22T10:11:12.939Z,98350.53
2022-08-22T10:13:52.890Z,98340.59
2022-08-22T10:16:49.588Z,98337.66
2022-08-22T10:19:29.921Z,98348.50
2022-08-22T10:22:30.359Z,98345.13
2022-08-22T10:25:19.041Z,98361.97
2022-08-22T10:28:02.172Z,98343.88
2022-08-22T10:30:36.061Z,98340.28
2022-08-22T10:33:12.339Z,98328.09
2022-08-22T10:36:05.085Z,98326.84
2022-08-22T10:38:46.132Z,98333.19
2022-08-22T10:41:28.355Z,98339.81
2022-08-22T10:44:11.688Z,98332.72
2022-08-22T10:46:47.372Z,98342.75
2022-08-22T10:49:28.265Z,98333.78
2022-08-22T10:52:13.665Z,98334.59
2022-08-22T10:54:48.884Z,98332.56
2022-08-22T10:57:50.722Z,98330.59
2022-08-22T11:00:38.606Z,98332.88
2022-08-22T11:03:24.853Z,98334.09
2022-08-22T11:06:01.546Z,98321.16
2022-08-22T11:08:59.805Z,98327.34
2022-08-22T11:11:49.650Z,98315.66
2022-08-22T11:14:58.361Z,98307.59
2022-08-22T11:18:06.306Z,98317.09
2022-08-22T11:20:53.782Z,98305.50
2022-08-22T11:23:35.103Z,98311.38
2022-08-22T11:26:15.007Z,98302.03
2022-08-22T11:29:13.747Z,98300.13
2022-08-22T11:31:51.458Z,98304.63
2022-08-22T11:34:33.373Z,98287.56
2022-08-22T11:37:12.210Z,98293.75
2022-08-22T11:39:48.086Z,98285.41
2022-08-22T11:42:29.540Z,98286.69
2022-08-22T11:45:02.443Z,98282.34
2022-08-22T11:47:41.577Z,98270.56
2022-08-22T11:50:19.238Z,98255.81
2022-08-22T11:53:12.230Z,98259.78
2022-08-22T11:55:51.871Z,98258.38
2022-08-22T11:58:31.802Z,98261.13
2022-08-22T12:01:04.622Z,98260.88
2022-08-22T12:03:55.747Z,98268.22
2022-08-22T12:07:02.227Z,98255.91
2022-08-22T12:09:42.871Z,98264.31
2022-08-22T12:12:27.163Z,98253.41
2022-08-22T12:15:05.478Z,98263.31
2022-08-22T12:18:01.456Z,98252.38
2022-08-22T12:21:32.776Z,98245.09
2022-08-22T12:24:33.226Z,98255.97
2022-08-22T12:27:30.956Z,98230.81
2022-08-22T12:30:14.230Z,98229.63
2022-08-22T12:33:13.105Z,98236.84
2022-08-22T12:36:04.909Z,98218.84
2022-08-22T12:39:02.343Z,98242.69
2022-08-22T12:42:04.239Z,98226.03
2022-08-22T12:44:50.649Z,98227.28
2022-08-22T12:47:34.444Z,98231.97
2022-08-22T12:50:17.160Z,98235.28
2022-08-22T12:53:07.138Z,98230.66
2022-08-22T12:55:51.898Z,98234.66
2022-08-22T12:58:33.875Z,98238.41
2022-08-22T13:01:07.126Z,98241.06
2022-08-22T13:03:45.247Z,98227.63
2022-08-22T13:06:48.787Z,98234.84
2022-08-22T13:09:28.783Z,98225.75
2022-08-22T13:12:02.583Z,98231.22
2022-08-22T13:14:34.225Z,98223.47
2022-08-22T13:17:24.486Z,98223.09
2022-08-22T13:20:06.816Z,98239.66
2022-08-22T13:22:45.674Z,98235.44
2022-08-22T13:25:25.853Z,98257.78
2022-08-22T13:27:59.105Z,98252.78
2022-08-22T13:30:32.200Z,98262.31
2022-08-22T13:33:11.042Z,98266.34
2022-08-22T13:35:51.923Z,98253.78
2022-08-22T13:38:27.260Z,98248.53
2022-08-22T13:41:01.210Z,98247.91
2022-08-22T13:43:35.840Z,98251.75
2022-08-22T13:46:10.825Z,98271.91
2022-08-22T13:49:01.007Z,98260.59
2022-08-22T13:51:40.379Z,98259.22
2022-08-22T13:54:38.937Z,98267.63
2022-08-22T13:57:20.178Z,98260.44
2022-08-22T14:00:05.745Z,98263.34
2022-08-22T14:02:58.326Z,98262.03
2022-08-22T14:05:36.352Z,98257.78
2022-08-22T14:08:18.839Z,98255.50
2022-08-22T14:10:55.056Z,98272.03
2022-08-22T14:13:41.120Z,98250.66
2022-08-22T14:16:15.016Z,98263.63
2022-08-22T14:18:49.380Z,98253.81
2022-08-22T14:21:26.493Z,98261.31
2022-08-22T14:23:59.908Z,98256.97
2022-08-22T14:26:32.854Z,98277.78
2022-08-22T14:29:14.551Z,98274.19
2022-08-22T14:31:57.272Z,98280.34
2022-08-22T14:34:27.500Z,98290.94
2022-08-22T14:36:58.887Z,98283.31
2022-08-22T14:39:38.030Z,98286.97
2022-08-22T14:42:18.801Z,98288.06
2022-08-22T14:45:00.199Z,98285.34
2022-08-22T14:47:55.373Z,98281.53
2022-08-22T14:50:44.347Z,98277.00
2022-08-22T14:53:25.429Z,98278.13
2022-08-22T14:56:03.880Z,98270.50
2022-08-22T14:58:36.578Z,98265.91
2022-08-22T15:01:12.755Z,98276.63
2022-08-22T15:03:54.108Z,98268.91
2022-08-22T15:06:37.129Z,98283.44
2022-08-22T15:09:08.481Z,98288.53
2022-08-22T15:11:42.161Z,98299.09
2022-08-22T15:14:24.350Z,98292.41
2022-08-22T15:16:56.245Z,98303.72
2022-08-22T15:19:36.832Z,98309.28
2022-08-22T15:22:15.075Z,98302.31
2022-08-22T15:25:00.482Z,98297.41
2022-08-22T15:27:33.821Z,98291.47
2022-08-22T15:30:07.042Z,98290.81
2022-08-22T15:32:49.229Z,98278.06
2022-08-22T15:35:30.122Z,98285.06
2022-08-22T15:38:04.444Z,98286.34
2022-08-22T15:40:35.241Z,98303.38
2022-08-22T15:43:21.675Z,98303.97
2022-08-22T15:45:53.468Z,98321.56
2022-08-22T15:48:32.543Z,98320.38
2022-08-22T15:51:09.435Z,98315.06
2022-08-22T15:54:02.096Z,98314.47
2022-08-22T15:56:34.220Z,98321.75
2022-08-22T15:59:48.241Z,98312.59
2022-08-22T16:02:34.887Z,98332.25
2022-08-22T16:05:23.273Z,98349.03
2022-08-22T16:08:02.924Z,98346.72
2022-08-22T16:10:34.710Z,98344.75
2022-08-22T16:13:37.946Z,98343.59
2022-08-22T16:16:14.875Z,98333.91
2022-08-22T16:19:20.359Z,98340.78
2022-08-22T16:22:15.252Z,98338.94
2022-08-22T16:25:08.041Z,98347.91
2022-08-22T16:27:54.075Z,98335.81
2022-08-22T16:30:35.186Z,98355.00
2022-08-22T16:33:07.146Z,98350.94
2022-08-22T16:36:22.443Z,98366.03
2022-08-22T16:38:53.748Z,98372.09
2022-08-22T16:41:35.873Z,98347.22
2022-08-22T16:44:38.864Z,98346.72
2022-08-22T16:47:15.917Z,98339.59
2022-08-22T16:50:09.287Z,98345.94
2022-08-22T16:52:57.048Z,98336.09
2022-08-22T16:55:50.197Z,98340.66
2022-08-22T16:58:57.736Z,98345.16
2022-08-22T17:01:54.328Z,98354.72
2022-08-22T17:04:32.911Z,98351.47
2022-08-22T17:07:16.738Z,98360.28
2022-08-22T17:10:00.520Z,98356.31
2022-08-22T17:12:46.131Z,98348.34
2022-08-22T17:15:28.392Z,98348.81
2022-08-22T17:18:12.721Z,98339.72
2022-08-22T17:20:48.047Z,98357.94
2022-08-22T17:23:28.809Z,98342.22
2022-08-22T17:26:08.990Z,98347.16
2022-08-22T17:28:42.862Z,98355.28
2022-08-22T17:31:18.477Z,98357.38
2022-08-22T17:34:23.226Z,98353.59
2022-08-22T17:37:04.851Z,98355.75
2022-08-22T17:40:07.325Z,98347.34
2022-08-22T17:43:08.913Z,98349.47
2022-08-22T17:45:51.246Z,98382.88
2022-08-22T17:48:25.972Z,98388.91
2022-08-22T17:50:59.645Z,98395.47
2022-08-22T17:53:37.222Z,98385.81
2022-08-22T17:56:21.031Z,98387.41
2022-08-22T17:59:07.063Z,98407.34
2022-08-22T18:01:50.689Z,98395.56
2022-08-22T18:04:44.404Z,98393.59
2022-08-22T18:07:31.614Z,98389.63
2022-08-22T18:10:07.793Z,98393.97
2022-08-22T18:12:46.024Z,98399.41
2022-08-22T18:15:25.797Z,98386.44
2022-08-22T18:17:58.818Z,98390.34
2022-08-22T18:20:31.418Z,98385.72
2022-08-22T18:23:05.087Z,98388.63
2022-08-22T18:26:05.431Z,98410.69
2022-08-22T18:28:43.279Z,98405.72
2022-08-22T18:31:28.445Z,98423.06
2022-08-22T18:34:02.252Z,98399.66
2022-08-22T18:36:35.248Z,98405.25
2022-08-22T18:39:15.202Z,98410.38
2022-08-22T18:41:50.440Z,98408.88
2022-08-22T18:44:25.268Z,98427.38
2022-08-22T18:46:56.038Z,98417.22
2022-08-22T18:49:48.462Z,98430.16
2022-08-22T18:52:34.168Z,98420.00
2022-08-22T18:55:45.847Z,98437.22
2022-08-22T18:58:40.478Z,98426.69
2022-08-22T19:01:44.196Z,98438.06
2022-08-22T19:04:36.202Z,98437.69
2022-08-22T19:07:32.215Z,98455.28
2022-08-22T19:10:28.014Z,98462.75
2022-08-22T19:13:04.488Z,98467.06
2022-08-22T19:15:49.249Z,98451.03
2022-08-22T19:18:34.680Z,98453.44
2022-08-22T19:21:34.558Z,98474.22
2022-08-22T19:24:08.035Z,98480.09
2022-08-22T19:26:40.714Z,98475.03
2022-08-22T19:29:52.777Z,98475.44
2022-08-22T19:33:06.417Z,98495.78
2022-08-22T19:35:46.631Z,98494.25
2022-08-22T19:38:54.823Z,98502.91
2022-08-22T19:41:39.583Z,98491.53
2022-08-22T19:44:11.442Z,98505.28
2022-08-22T19:46:42.967Z,98513.88
2022-08-22T19:49:30.448Z,98509.19
2022-08-22T19:52:14.371Z,98513.88
2022-08-22T19:54:53.582Z,98500.94
2022-08-22T19:57:35.487Z,98506.03
2022-08-22T20:00:13.669Z,98515.81
2022-08-22T20:02:59.874Z,98511.13
2022-08-22T20:05:38.764Z,98513.84
2022-08-22T20:08:25.651Z,98515.81
2022-08-22T20:11:05.613Z,98517.38
2022-08-22T20:13:37.556Z,98502.47
2022-08-22T20:16:16.349Z,98527.91
2022-08-22T20:19:16.656Z,98528.31
2022-08-22T20:22:00.430Z,98529.84
2022-08-22T20:24:42.575Z,98517.72
2022-08-22T20:27:17.509Z,98529.09
2022-08-22T20:29:52.508Z,98510.34
2022-08-22T20:32:26.137Z,98528.34
2022-08-22T20:35:00.096Z,98516.22
2022-08-22T20:37:56.235Z,98509.16
2022-08-22T20:40:54.517Z,98519.78
2022-08-22T20:43:35.678Z,98510.78
2022-08-22T20:46:19.160Z,98535.06
2022-08-22T20:48:51.695Z,98528.81
2022-08-22T20:51:25.225Z,98532.72
2022-08-22T20:53:55.745Z,98521.75
2022-08-22T20:56:37.015Z,98524.13
2022-08-22T20:59:18.557Z,98537.44
2022-08-22T21:01:47.692Z,98533.09
2022-08-22T21:04:20.998Z,98528.03
2022-08-22T21:06:59.368Z,98519.81
2022-08-22T21:09:45.338Z,98522.16
2022-08-22T21:12:15.300Z,98534.28
2022-08-22T21:14:47.336Z,98534.69
2022-08-22T21:17:25.091Z,98534.72
2022-08-22T21:19:53.657Z,98531.19
2022-08-22T21:22:32.066Z,98535.09
2022-08-22T21:25:01.992Z,98541.75
2022-08-22T21:27:34.229Z,98559.75
2022-08-22T21:30:08.527Z,98544.47
2022-08-22T21:32:43.181Z,98554.66
2022-08-22T21:35:22.201Z,98555.06
2022-08-22T21:37:53.427Z,98532.75
2022-08-22T21:40:28.393Z,98531.16
2022-08-22T21:43:02.497Z,98539.78
2022-08-22T21:45:34.480Z,98520.97
2022-08-22T21:48:26.062Z,98517.84
2022-08-22T21:50:57.535Z,98521.34
2022-08-22T21:53:29.296Z,98545.25
2022-08-22T21:56:12.713Z,98545.66
2022-08-22T21:58:43.457Z,98538.59
2022-08-22T22:01:33.181Z,98539.75
2022-08-22T22:04:01.659Z,98540.94
2022-08-22T22:06:29.972Z,98534.72
2022-08-22T22:09:08.475Z,98524.53
2022-08-22T22:11:39.398Z,98535.88
2022-08-22T22:14:09.816Z,98541.34
2022-08-22T22:16:38.643Z,98535.47
2022-08-22T22:19:10.060Z,98543.31
2022-08-22T22:21:38.952Z,98530.03
2022-08-22T22:24:07.620Z,98539.00
2022-08-22T22:26:36.146Z,98529.97
2022-08-22T22:29:10.846Z,98520.97
2022-08-22T22:31:38.884Z,98543.28
2022-08-22T22:34:07.105Z,98531.13
2022-08-22T22:36:38.334Z,98537.00
2022-08-22T22:39:07.298Z,98518.59
2022-08-22T22:41:36.697Z,98512.34
2022-08-22T22:44:05.759Z,98516.25
2022-08-22T22:46:38.335Z,98505.28
2022-08-22T22:49:07.316Z,98508.44
2022-08-22T22:51:35.633Z,98525.63
2022-08-22T22:54:04.020Z,98497.81
2022-08-22T22:56:32.852Z,98493.13
2022-08-22T22:59:13.066Z,98502.94
2022-08-22T23:04:45.435Z,98523.28
2022-08-22T23:07:20.207Z,98523.28
2022-08-22T23:09:53.662Z,98525.25
2022-08-22T23:12:27.559Z,98508.41
2022-08-22T23:15:02.174Z,98513.84
2022-08-22T23:17:38.355Z,98513.78
2022-08-22T23:20:16.606Z,98515.38
2022-08-22T23:22:46.083Z,98502.78
2022-08-22T23:25:19.961Z,98501.25
2022-08-22T23:27:58.569Z,98520.03
2022-08-22T23:30:26.959Z,98529.03
2022-08-22T23:32:55.880Z,98518.47
2022-08-22T23:35:25.613Z,98541.25
2022-08-22T23:37:54.002Z,98550.66
2022-08-22T23:40:22.376Z,98570.69
2022-08-22T23:42:50.657Z,98585.97
2022-08-22T23:45:19.152Z,98580.53
2022-08-22T23:47:50.432Z,98561.72
2022-08-22T23:50:18.789Z,98568.41
2022-08-22T23:52:48.682Z,98562.13
2022-08-22T23:55:17.159Z,98571.13
2022-08-22T23:57:48.028Z,98569.97
